Aeroporto :
LOGIN :

Iscrizione | Disclaimer

   EN    FR    IT 

 










Sommario :    VFR   VFR Marginale   IFR   IFR Intensivo   IFR Molto Intensivo
Visibilità : 
Base nubi : 
>= 8 km
>= 3000ft
5 / 8 km
1000 / 3000 ft
1500m / 5 km
500 / 1000 ft
800 / 1500m
200 / 500 ft
< 800m
< 200 ft
Simboli :   Temporali  Nebbia  Neve Forte  Precipitazioni Forti  Vento > 20 kt
SIGMETs :   Varie  Temporali  Ghiacco  Turbolenza  Onda orograficha  Ceneri Vulcaniche






- Altitudine del aeroporto : 278 ft
- Codice IATA : RJK


LDRI - Rijeka

ULTIMO METAR :
  • 210830Z 26005KT 220V290 9999 BKN050 22/16 Q1016

METARs OBSOLETI :
  • 210800Z 26004KT 230V300 9999 SCT050 23/14 Q1016
  • 210730Z VRB02KT 9999 FEW050 24/15 Q1016
  • 210700Z VRB02KT 9999 FEW050 22/15 Q1016
  • 210630Z VRB01KT 9999 SCT050 20/16 Q1016
  • 210600Z 11003KT 9999 SCT050 20/15 Q1016

TAF TAF LDRI
Valido dal 21 a 06 ore il 22 a 06 ore UTC


210525Z 2106/2206 VRB02KT 9999 SCT040 TX25/2113Z TN18/2204Z
PROB40
TEMPO 2106/2110 12008KT
PROB30
TEMPO 2203/2206 -TSRA FEW030CB BKN040



MetMap, La meteo Aeronautica in un colpo d'occhio ! - Copyright ORBIFLY Dicembre 2007 - Disclaimer

ORBIFLY MET'MAP TEAM :

Programmazione e sviluppo : Alexandra Zaïnal
Concezione : Baudouin d'Aumeries
Aiuto per la programmazione : Marc-Olivier Méhu
Supporto tecnico e logistico : Manuel Goepfert
Aiuto per la traduzione : Arnaldo La Scala

Contatto : metmap@orbifly.com




FONTI E CREDITI :

   NOAA